Terminal Aerodrome Forecast
Issued by NWS

Home | Current Version | Previous Version | Text Only | Print | Product List | Glossary On
Versions: 1 2 3 4 5 6 7 8 9 10 11 12 13 14
000
FTUS46 KPDT 211728
TAFPSC
TAF
KPSC 211728Z 2118/2218 18011KT P6SM -RA BKN035 OVC050
     FM220200 22014G20KT P6SM VCSH SCT040 BKN100
     FM220600 22022G30KT P6SM SCT070 BKN100
     FM221500 22017G25KT P6SM BKN100=

USA.gov is the U.S. government's official web portal to all federal, state and local government web resources and services.